sensor_id;sensor_type;location;lat;lon;timestamp;P1;durP1;ratioP1;P2;durP2;ratioP2
20478;SDS011;10398;52.490;13.434;2023-03-01T00:01:08;18.37;;;6.33;;
20478;SDS011;10398;52.490;13.434;2023-03-01T00:03:36;16.10;;;6.90;;
20478;SDS011;10398;52.490;13.434;2023-03-01T00:06:02;22.70;;;6.87;;
20478;SDS011;10398;52.490;13.434;2023-03-01T00:08:29;19.67;;;7.57;;
20478;SDS011;10398;52.490;13.434;2023-03-01T00:13:42;26.80;;;7.43;;
20478;SDS011;10398;52.490;13.434;2023-03-01T00:16:09;23.53;;;6.90;;
20478;SDS011;10398;52.490;13.434;2023-03-01T00:18:37;19.17;;;6.77;;
20478;SDS011;10398;52.490;13.434;2023-03-01T00:21:03;21.47;;;7.93;;
20478;SDS011;10398;52.490;13.434;2023-03-01T00:23:29;24.60;;;7.50;;
20478;SDS011;10398;52.490;13.434;2023-03-01T00:25:55;20.53;;;7.07;;
20478;SDS011;10398;52.490;13.434;2023-03-01T00:28:20;19.60;;;7.23;;
20478;SDS011;10398;52.490;13.434;2023-03-01T00:30:46;16.60;;;6.83;;
20478;SDS011;10398;52.490;13.434;2023-03-01T00:33:12;26.53;;;7.20;;
20478;SDS011;10398;52.490;13.434;2023-03-01T00:35:38;20.53;;;7.27;;
20478;SDS011;10398;52.490;13.434;2023-03-01T00:38:04;21.67;;;8.00;;
20478;SDS011;10398;52.490;13.434;2023-03-01T00:40:32;18.57;;;6.87;;
20478;SDS011;10398;52.490;13.434;2023-03-01T00:42:59;23.10;;;7.23;;
20478;SDS011;10398;52.490;13.434;2023-03-01T00:45:25;21.93;;;7.60;;
20478;SDS011;10398;52.490;13.434;2023-03-01T00:47:51;20.60;;;6.87;;
20478;SDS011;10398;52.490;13.434;2023-03-01T00:50:17;19.90;;;6.17;;
20478;SDS011;10398;52.490;13.434;2023-03-01T00:52:44;27.57;;;7.37;;
20478;SDS011;10398;52.490;13.434;2023-03-01T00:55:10;21.23;;;7.00;;
20478;SDS011;10398;52.490;13.434;2023-03-01T00:57:37;22.97;;;6.83;;
20478;SDS011;10398;52.490;13.434;2023-03-01T01:00:04;21.60;;;6.80;;
20478;SDS011;10398;52.490;13.434;2023-03-01T01:02:33;20.53;;;7.47;;
20478;SDS011;10398;52.490;13.434;2023-03-01T01:04:59;16.93;;;7.70;;
20478;SDS011;10398;52.490;13.434;2023-03-01T01:07:25;18.20;;;7.33;;
20478;SDS011;10398;52.490;13.434;2023-03-01T01:09:50;20.87;;;7.77;;
20478;SDS011;10398;52.490;13.434;2023-03-01T01:12:16;16.73;;;6.67;;
20478;SDS011;10398;52.490;13.434;2023-03-01T01:14:42;20.73;;;7.00;;
20478;SDS011;10398;52.490;13.434;2023-03-01T01:17:08;14.77;;;6.97;;
20478;SDS011;10398;52.490;13.434;2023-03-01T01:19:33;24.00;;;7.70;;
20478;SDS011;10398;52.490;13.434;2023-03-01T01:21:59;15.33;;;7.13;;
20478;SDS011;10398;52.490;13.434;2023-03-01T01:24:25;19.73;;;7.27;;
20478;SDS011;10398;52.490;13.434;2023-03-01T01:26:51;18.63;;;7.47;;
20478;SDS011;10398;52.490;13.434;2023-03-01T01:29:16;17.67;;;7.00;;
20478;SDS011;10398;52.490;13.434;2023-03-01T01:31:42;22.13;;;7.10;;
20478;SDS011;10398;52.490;13.434;2023-03-01T01:34:10;20.63;;;6.83;;
20478;SDS011;10398;52.490;13.434;2023-03-01T01:36:39;24.30;;;7.50;;
20478;SDS011;10398;52.490;13.434;2023-03-01T01:39:05;23.70;;;6.63;;
20478;SDS011;10398;52.490;13.434;2023-03-01T01:41:31;14.93;;;6.00;;
20478;SDS011;10398;52.490;13.434;2023-03-01T01:44:16;17.07;;;7.23;;
20478;SDS011;10398;52.490;13.434;2023-03-01T01:46:46;15.93;;;7.40;;
20478;SDS011;10398;52.490;13.434;2023-03-01T01:51:43;16.17;;;5.70;;
20478;SDS011;10398;52.490;13.434;2023-03-01T01:54:20;24.03;;;7.17;;
20478;SDS011;10398;52.490;13.434;2023-03-01T01:56:52;17.87;;;7.37;;
20478;SDS011;10398;52.490;13.434;2023-03-01T01:59:26;21.77;;;6.40;;
20478;SDS011;10398;52.490;13.434;2023-03-01T02:01:54;15.13;;;6.17;;
20478;SDS011;10398;52.490;13.434;2023-03-01T02:04:20;21.37;;;6.03;;
20478;SDS011;10398;52.490;13.434;2023-03-01T02:06:48;15.83;;;6.53;;
20478;SDS011;10398;52.490;13.434;2023-03-01T02:09:18;14.93;;;6.37;;
20478;SDS011;10398;52.490;13.434;2023-03-01T02:11:46;16.90;;;6.27;;
20478;SDS011;10398;52.490;13.434;2023-03-01T02:14:14;13.67;;;6.23;;
20478;SDS011;10398;52.490;13.434;2023-03-01T02:16:40;17.33;;;6.27;;
20478;SDS011;10398;52.490;13.434;2023-03-01T02:19:07;14.77;;;5.67;;
20478;SDS011;10398;52.490;13.434;2023-03-01T02:21:38;13.50;;;5.83;;
20478;SDS011;10398;52.490;13.434;2023-03-01T02:24:49;14.83;;;5.87;;
20478;SDS011;10398;52.490;13.434;2023-03-01T02:27:04;14.33;;;6.03;;
20478;SDS011;10398;52.490;13.434;2023-03-01T02:29:42;11.23;;;5.10;;
20478;SDS011;10398;52.490;13.434;2023-03-01T02:32:09;22.83;;;6.10;;
20478;SDS011;10398;52.490;13.434;2023-03-01T02:34:35;15.37;;;6.23;;
20478;SDS011;10398;52.490;13.434;2023-03-01T02:37:09;20.57;;;7.10;;
20478;SDS011;10398;52.490;13.434;2023-03-01T02:39:40;18.43;;;6.77;;
20478;SDS011;10398;52.490;13.434;2023-03-01T02:42:13;16.83;;;6.40;;
20478;SDS011;10398;52.490;13.434;2023-03-01T02:44:41;19.17;;;6.70;;
20478;SDS011;10398;52.490;13.434;2023-03-01T02:47:07;20.97;;;6.77;;
20478;SDS011;10398;52.490;13.434;2023-03-01T02:49:34;17.53;;;7.10;;
20478;SDS011;10398;52.490;13.434;2023-03-01T02:57:34;10.53;;;5.37;;
20478;SDS011;10398;52.490;13.434;2023-03-01T03:00:03;16.30;;;5.87;;
20478;SDS011;10398;52.490;13.434;2023-03-01T03:02:34;13.60;;;6.17;;
20478;SDS011;10398;52.490;13.434;2023-03-01T03:05:02;17.70;;;6.00;;
20478;SDS011;10398;52.490;13.434;2023-03-01T03:07:31;17.43;;;6.07;;
20478;SDS011;10398;52.490;13.434;2023-03-01T03:09:58;15.53;;;6.50;;
20478;SDS011;10398;52.490;13.434;2023-03-01T03:12:24;21.00;;;6.40;;
20478;SDS011;10398;52.490;13.434;2023-03-01T03:14:50;15.97;;;6.17;;
20478;SDS011;10398;52.490;13.434;2023-03-01T03:17:16;13.57;;;6.33;;
20478;SDS011;10398;52.490;13.434;2023-03-01T03:19:41;16.23;;;5.73;;
20478;SDS011;10398;52.490;13.434;2023-03-01T03:22:10;17.67;;;6.73;;
20478;SDS011;10398;52.490;13.434;2023-03-01T03:24:36;22.27;;;5.97;;
20478;SDS011;10398;52.490;13.434;2023-03-01T03:27:06;17.10;;;6.17;;
20478;SDS011;10398;52.490;13.434;2023-03-01T03:29:32;13.10;;;6.10;;
20478;SDS011;10398;52.490;13.434;2023-03-01T03:31:58;19.87;;;5.87;;
20478;SDS011;10398;52.490;13.434;2023-03-01T03:34:24;21.83;;;6.97;;
20478;SDS011;10398;52.490;13.434;2023-03-01T03:36:55;15.70;;;6.67;;
20478;SDS011;10398;52.490;13.434;2023-03-01T03:39:24;16.10;;;5.90;;
20478;SDS011;10398;52.490;13.434;2023-03-01T03:41:53;22.23;;;5.67;;
20478;SDS011;10398;52.490;13.434;2023-03-01T03:44:20;14.80;;;5.83;;
20478;SDS011;10398;52.490;13.434;2023-03-01T03:46:46;16.37;;;6.47;;
20478;SDS011;10398;52.490;13.434;2023-03-01T03:49:11;14.93;;;5.60;;
20478;SDS011;10398;52.490;13.434;2023-03-01T03:51:37;13.27;;;6.07;;
20478;SDS011;10398;52.490;13.434;2023-03-01T03:54:02;19.60;;;5.90;;
20478;SDS011;10398;52.490;13.434;2023-03-01T03:56:28;16.20;;;6.10;;
20478;SDS011;10398;52.490;13.434;2023-03-01T03:58:54;12.43;;;5.70;;
20478;SDS011;10398;52.490;13.434;2023-03-01T04:01:20;19.90;;;7.10;;
20478;SDS011;10398;52.490;13.434;2023-03-01T04:03:45;20.90;;;6.70;;
20478;SDS011;10398;52.490;13.434;2023-03-01T04:06:14;18.63;;;7.40;;
20478;SDS011;10398;52.490;13.434;2023-03-01T04:08:40;18.83;;;6.57;;
20478;SDS011;10398;52.490;13.434;2023-03-01T04:11:06;18.63;;;6.23;;
20478;SDS011;10398;52.490;13.434;2023-03-01T04:13:51;18.00;;;6.47;;
20478;SDS011;10398;52.490;13.434;2023-03-01T04:16:19;12.10;;;5.70;;
20478;SDS011;10398;52.490;13.434;2023-03-01T04:18:45;17.50;;;6.17;;
20478;SDS011;10398;52.490;13.434;2023-03-01T04:21:11;19.53;;;6.47;;
20478;SDS011;10398;52.490;13.434;2023-03-01T04:23:37;15.50;;;6.63;;
20478;SDS011;10398;52.490;13.434;2023-03-01T04:26:03;17.17;;;6.73;;
20478;SDS011;10398;52.490;13.434;2023-03-01T04:28:30;20.97;;;7.10;;
20478;SDS011;10398;52.490;13.434;2023-03-01T04:31:19;18.03;;;6.83;;
20478;SDS011;10398;52.490;13.434;2023-03-01T04:33:50;14.87;;;7.10;;
20478;SDS011;10398;52.490;13.434;2023-03-01T04:36:18;21.27;;;7.07;;
20478;SDS011;10398;52.490;13.434;2023-03-01T04:38:46;16.07;;;7.20;;
20478;SDS011;10398;52.490;13.434;2023-03-01T04:41:15;17.07;;;7.07;;
20478;SDS011;10398;52.490;13.434;2023-03-01T04:43:42;24.30;;;9.10;;
20478;SDS011;10398;52.490;13.434;2023-03-01T04:46:09;18.67;;;6.70;;
20478;SDS011;10398;52.490;13.434;2023-03-01T04:48:38;18.77;;;8.37;;
20478;SDS011;10398;52.490;13.434;2023-03-01T04:51:06;14.93;;;6.80;;
20478;SDS011;10398;52.490;13.434;2023-03-01T04:53:32;20.20;;;7.50;;
20478;SDS011;10398;52.490;13.434;2023-03-01T04:55:58;16.57;;;5.80;;
20478;SDS011;10398;52.490;13.434;2023-03-01T04:58:25;16.63;;;7.73;;
20478;SDS011;10398;52.490;13.434;2023-03-01T05:00:52;20.97;;;8.93;;
20478;SDS011;10398;52.490;13.434;2023-03-01T05:03:19;23.87;;;7.40;;
20478;SDS011;10398;52.490;13.434;2023-03-01T05:05:46;21.43;;;7.53;;
20478;SDS011;10398;52.490;13.434;2023-03-01T05:08:14;23.53;;;8.43;;
20478;SDS011;10398;52.490;13.434;2023-03-01T05:10:48;20.67;;;7.83;;
20478;SDS011;10398;52.490;13.434;2023-03-01T05:13:17;22.40;;;8.27;;
20478;SDS011;10398;52.490;13.434;2023-03-01T05:16:07;17.73;;;8.47;;
20478;SDS011;10398;52.490;13.434;2023-03-01T05:18:36;23.23;;;8.60;;
20478;SDS011;10398;52.490;13.434;2023-03-01T05:21:03;18.73;;;7.03;;
20478;SDS011;10398;52.490;13.434;2023-03-01T05:23:33;20.90;;;7.50;;
20478;SDS011;10398;52.490;13.434;2023-03-01T05:26:00;16.97;;;6.97;;
20478;SDS011;10398;52.490;13.434;2023-03-01T05:28:28;26.03;;;8.57;;
20478;SDS011;10398;52.490;13.434;2023-03-01T05:30:54;20.80;;;7.83;;
20478;SDS011;10398;52.490;13.434;2023-03-01T05:33:21;27.63;;;9.10;;
20478;SDS011;10398;52.490;13.434;2023-03-01T05:35:47;23.07;;;7.90;;
20478;SDS011;10398;52.490;13.434;2023-03-01T05:38:14;26.33;;;8.10;;
20478;SDS011;10398;52.490;13.434;2023-03-01T05:40:45;19.40;;;8.07;;
20478;SDS011;10398;52.490;13.434;2023-03-01T05:43:13;15.57;;;7.40;;
20478;SDS011;10398;52.490;13.434;2023-03-01T05:45:40;18.10;;;7.37;;
20478;SDS011;10398;52.490;13.434;2023-03-01T05:48:06;22.07;;;8.33;;
20478;SDS011;10398;52.490;13.434;2023-03-01T05:50:34;27.03;;;8.17;;
20478;SDS011;10398;52.490;13.434;2023-03-01T05:55:32;25.03;;;10.00;;
20478;SDS011;10398;52.490;13.434;2023-03-01T05:57:59;31.67;;;9.90;;
20478;SDS011;10398;52.490;13.434;2023-03-01T06:00:26;21.50;;;8.13;;
20478;SDS011;10398;52.490;13.434;2023-03-01T06:02:53;26.87;;;9.37;;
20478;SDS011;10398;52.490;13.434;2023-03-01T06:05:19;22.33;;;9.07;;
20478;SDS011;10398;52.490;13.434;2023-03-01T06:07:45;20.83;;;8.80;;
20478;SDS011;10398;52.490;13.434;2023-03-01T06:10:11;21.53;;;8.30;;
20478;SDS011;10398;52.490;13.434;2023-03-01T06:12:38;25.27;;;8.60;;
20478;SDS011;10398;52.490;13.434;2023-03-01T06:15:06;23.03;;;8.40;;
20478;SDS011;10398;52.490;13.434;2023-03-01T06:17:34;27.00;;;8.57;;
20478;SDS011;10398;52.490;13.434;2023-03-01T06:20:15;19.80;;;8.43;;
20478;SDS011;10398;52.490;13.434;2023-03-01T06:22:44;24.87;;;8.60;;
20478;SDS011;10398;52.490;13.434;2023-03-01T06:25:10;29.33;;;8.67;;
20478;SDS011;10398;52.490;13.434;2023-03-01T06:27:37;16.20;;;7.73;;
20478;SDS011;10398;52.490;13.434;2023-03-01T06:30:04;17.77;;;7.50;;
20478;SDS011;10398;52.490;13.434;2023-03-01T06:32:30;29.43;;;9.17;;
20478;SDS011;10398;52.490;13.434;2023-03-01T06:34:56;25.73;;;8.90;;
20478;SDS011;10398;52.490;13.434;2023-03-01T06:37:23;27.90;;;8.90;;
20478;SDS011;10398;52.490;13.434;2023-03-01T06:39:52;26.63;;;8.77;;
20478;SDS011;10398;52.490;13.434;2023-03-01T06:42:18;22.47;;;8.27;;
20478;SDS011;10398;52.490;13.434;2023-03-01T06:44:44;26.17;;;8.03;;
20478;SDS011;10398;52.490;13.434;2023-03-01T06:47:10;19.43;;;8.17;;
20478;SDS011;10398;52.490;13.434;2023-03-01T06:49:36;21.33;;;8.27;;
20478;SDS011;10398;52.490;13.434;2023-03-01T06:52:02;25.20;;;9.37;;
20478;SDS011;10398;52.490;13.434;2023-03-01T06:54:28;28.27;;;11.27;;
20478;SDS011;10398;52.490;13.434;2023-03-01T06:56:54;29.03;;;9.80;;
20478;SDS011;10398;52.490;13.434;2023-03-01T06:59:19;26.80;;;10.20;;
20478;SDS011;10398;52.490;13.434;2023-03-01T07:01:46;16.97;;;8.40;;
20478;SDS011;10398;52.490;13.434;2023-03-01T07:04:12;25.37;;;9.10;;
20478;SDS011;10398;52.490;13.434;2023-03-01T07:06:38;21.67;;;8.13;;
20478;SDS011;10398;52.490;13.434;2023-03-01T07:09:04;28.70;;;10.47;;
20478;SDS011;10398;52.490;13.434;2023-03-01T07:11:29;20.07;;;8.43;;
20478;SDS011;10398;52.490;13.434;2023-03-01T07:13:55;29.50;;;10.07;;
20478;SDS011;10398;52.490;13.434;2023-03-01T07:16:25;28.97;;;10.00;;
20478;SDS011;10398;52.490;13.434;2023-03-01T07:18:50;24.50;;;9.70;;
20478;SDS011;10398;52.490;13.434;2023-03-01T07:21:16;26.77;;;10.67;;
20478;SDS011;10398;52.490;13.434;2023-03-01T07:23:42;28.40;;;10.33;;
20478;SDS011;10398;52.490;13.434;2023-03-01T07:26:07;30.10;;;10.77;;
20478;SDS011;10398;52.490;13.434;2023-03-01T07:28:33;31.67;;;10.50;;
20478;SDS011;10398;52.490;13.434;2023-03-01T07:31:04;29.07;;;10.53;;
20478;SDS011;10398;52.490;13.434;2023-03-01T07:33:31;31.87;;;10.87;;
20478;SDS011;10398;52.490;13.434;2023-03-01T07:35:58;23.43;;;10.43;;
20478;SDS011;10398;52.490;13.434;2023-03-01T07:38:25;28.53;;;10.67;;
20478;SDS011;10398;52.490;13.434;2023-03-01T07:40:51;35.97;;;10.93;;
20478;SDS011;10398;52.490;13.434;2023-03-01T07:43:17;26.27;;;10.13;;
20478;SDS011;10398;52.490;13.434;2023-03-01T07:45:43;31.40;;;11.57;;
20478;SDS011;10398;52.490;13.434;2023-03-01T07:48:09;31.47;;;10.60;;
20478;SDS011;10398;52.490;13.434;2023-03-01T07:50:35;22.23;;;9.50;;
20478;SDS011;10398;52.490;13.434;2023-03-01T07:53:01;28.80;;;10.97;;
20478;SDS011;10398;52.490;13.434;2023-03-01T07:55:27;26.07;;;11.00;;
20478;SDS011;10398;52.490;13.434;2023-03-01T07:57:53;21.80;;;10.13;;
20478;SDS011;10398;52.490;13.434;2023-03-01T08:00:26;28.97;;;10.23;;
20478;SDS011;10398;52.490;13.434;2023-03-01T08:02:51;29.90;;;11.00;;
20478;SDS011;10398;52.490;13.434;2023-03-01T08:05:17;24.57;;;10.40;;
20478;SDS011;10398;52.490;13.434;2023-03-01T08:07:43;29.10;;;10.07;;
20478;SDS011;10398;52.490;13.434;2023-03-01T08:10:09;31.30;;;9.80;;
20478;SDS011;10398;52.490;13.434;2023-03-01T08:12:35;30.00;;;10.40;;
20478;SDS011;10398;52.490;13.434;2023-03-01T08:15:01;21.40;;;8.37;;
20478;SDS011;10398;52.490;13.434;2023-03-01T08:17:26;19.70;;;9.10;;
20478;SDS011;10398;52.490;13.434;2023-03-01T08:19:52;28.27;;;9.60;;
20478;SDS011;10398;52.490;13.434;2023-03-01T08:22:18;35.93;;;9.60;;
20478;SDS011;10398;52.490;13.434;2023-03-01T08:24:43;19.03;;;8.70;;
20478;SDS011;10398;52.490;13.434;2023-03-01T08:27:09;21.40;;;9.73;;
20478;SDS011;10398;52.490;13.434;2023-03-01T08:29:37;24.03;;;10.30;;
20478;SDS011;10398;52.490;13.434;2023-03-01T08:32:03;17.57;;;8.37;;
20478;SDS011;10398;52.490;13.434;2023-03-01T08:34:29;22.97;;;8.97;;
20478;SDS011;10398;52.490;13.434;2023-03-01T08:36:56;16.70;;;6.67;;
20478;SDS011;10398;52.490;13.434;2023-03-01T08:39:21;20.93;;;8.37;;
20478;SDS011;10398;52.490;13.434;2023-03-01T08:41:47;25.77;;;8.60;;
20478;SDS011;10398;52.490;13.434;2023-03-01T08:44:13;19.83;;;8.27;;
20478;SDS011;10398;52.490;13.434;2023-03-01T08:46:43;20.00;;;7.53;;
20478;SDS011;10398;52.490;13.434;2023-03-01T08:49:11;17.60;;;8.00;;
20478;SDS011;10398;52.490;13.434;2023-03-01T08:51:41;18.40;;;8.23;;
20478;SDS011;10398;52.490;13.434;2023-03-01T08:54:12;18.17;;;7.57;;
20478;SDS011;10398;52.490;13.434;2023-03-01T08:56:40;14.53;;;6.27;;
20478;SDS011;10398;52.490;13.434;2023-03-01T08:59:06;12.17;;;6.10;;
20478;SDS011;10398;52.490;13.434;2023-03-01T09:01:32;13.90;;;5.50;;
20478;SDS011;10398;52.490;13.434;2023-03-01T09:03:57;11.47;;;5.63;;
20478;SDS011;10398;52.490;13.434;2023-03-01T09:06:23;20.33;;;5.60;;
20478;SDS011;10398;52.490;13.434;2023-03-01T09:08:49;14.17;;;5.00;;
20478;SDS011;10398;52.490;13.434;2023-03-01T09:11:20;12.43;;;5.37;;
20478;SDS011;10398;52.490;13.434;2023-03-01T09:13:47;10.57;;;5.20;;
20478;SDS011;10398;52.490;13.434;2023-03-01T09:16:14;13.53;;;5.13;;
20478;SDS011;10398;52.490;13.434;2023-03-01T09:18:42;10.27;;;4.90;;
20478;SDS011;10398;52.490;13.434;2023-03-01T09:21:10;12.17;;;5.33;;
20478;SDS011;10398;52.490;13.434;2023-03-01T09:23:41;10.90;;;5.20;;
20478;SDS011;10398;52.490;13.434;2023-03-01T09:26:13;15.50;;;4.90;;
20478;SDS011;10398;52.490;13.434;2023-03-01T09:28:44;12.40;;;5.50;;
20478;SDS011;10398;52.490;13.434;2023-03-01T09:31:11;8.23;;;4.33;;
20478;SDS011;10398;52.490;13.434;2023-03-01T09:33:37;11.53;;;4.40;;
20478;SDS011;10398;52.490;13.434;2023-03-01T09:36:05;11.50;;;4.87;;
20478;SDS011;10398;52.490;13.434;2023-03-01T09:38:32;10.00;;;4.40;;
20478;SDS011;10398;52.490;13.434;2023-03-01T09:40:59;9.70;;;3.97;;
20478;SDS011;10398;52.490;13.434;2023-03-01T09:43:33;10.43;;;4.43;;
20478;SDS011;10398;52.490;13.434;2023-03-01T09:46:18;8.33;;;4.30;;
20478;SDS011;10398;52.490;13.434;2023-03-01T09:51:27;8.73;;;4.70;;
20478;SDS011;10398;52.490;13.434;2023-03-01T09:53:56;11.97;;;3.83;;
20478;SDS011;10398;52.490;13.434;2023-03-01T10:02:41;5.53;;;2.93;;
20478;SDS011;10398;52.490;13.434;2023-03-01T10:05:14;5.80;;;3.07;;
20478;SDS011;10398;52.490;13.434;2023-03-01T10:10:28;8.13;;;2.60;;
20478;SDS011;10398;52.490;13.434;2023-03-01T10:12:58;9.77;;;3.60;;
20478;SDS011;10398;52.490;13.434;2023-03-01T10:15:34;7.20;;;2.60;;
20478;SDS011;10398;52.490;13.434;2023-03-01T10:18:06;6.00;;;2.50;;
20478;SDS011;10398;52.490;13.434;2023-03-01T10:23:03;7.30;;;2.77;;
20478;SDS011;10398;52.490;13.434;2023-03-01T10:31:22;14.30;;;2.93;;
20478;SDS011;10398;52.490;13.434;2023-03-01T10:33:53;7.97;;;3.30;;
20478;SDS011;10398;52.490;13.434;2023-03-01T10:36:20;10.60;;;4.10;;
20478;SDS011;10398;52.490;13.434;2023-03-01T10:41:23;10.50;;;4.60;;
20478;SDS011;10398;52.490;13.434;2023-03-01T10:43:54;24.23;;;9.80;;
20478;SDS011;10398;52.490;13.434;2023-03-01T10:51:47;7.30;;;3.67;;
20478;SDS011;10398;52.490;13.434;2023-03-01T10:56:51;9.47;;;3.70;;
20478;SDS011;10398;52.490;13.434;2023-03-01T10:59:24;5.77;;;2.70;;
20478;SDS011;10398;52.490;13.434;2023-03-01T11:02:31;8.13;;;3.03;;
20478;SDS011;10398;52.490;13.434;2023-03-01T11:05:01;9.17;;;3.30;;
20478;SDS011;10398;52.490;13.434;2023-03-01T11:07:48;9.53;;;3.60;;
20478;SDS011;10398;52.490;13.434;2023-03-01T11:10:22;9.63;;;3.47;;
20478;SDS011;10398;52.490;13.434;2023-03-01T11:15:41;7.00;;;3.10;;
20478;SDS011;10398;52.490;13.434;2023-03-01T11:18:18;8.53;;;3.47;;
20478;SDS011;10398;52.490;13.434;2023-03-01T11:20:46;5.37;;;2.70;;
20478;SDS011;10398;52.490;13.434;2023-03-01T11:23:14;8.17;;;2.90;;
20478;SDS011;10398;52.490;13.434;2023-03-01T11:25:46;6.73;;;2.70;;
20478;SDS011;10398;52.490;13.434;2023-03-01T11:28:17;5.73;;;2.40;;
20478;SDS011;10398;52.490;13.434;2023-03-01T11:31:26;6.80;;;2.80;;
20478;SDS011;10398;52.490;13.434;2023-03-01T11:38:52;6.43;;;2.50;;
20478;SDS011;10398;52.490;13.434;2023-03-01T11:41:20;6.37;;;2.30;;
20478;SDS011;10398;52.490;13.434;2023-03-01T11:43:57;5.53;;;2.57;;
20478;SDS011;10398;52.490;13.434;2023-03-01T11:49:17;7.03;;;2.90;;
20478;SDS011;10398;52.490;13.434;2023-03-01T12:16:40;4.20;;;1.60;;
20478;SDS011;10398;52.490;13.434;2023-03-01T12:22:32;4.57;;;1.77;;
20478;SDS011;10398;52.490;13.434;2023-03-01T12:30:34;4.47;;;1.67;;
20478;SDS011;10398;52.490;13.434;2023-03-01T12:33:25;4.47;;;1.77;;
20478;SDS011;10398;52.490;13.434;2023-03-01T12:38:46;3.27;;;1.40;;
20478;SDS011;10398;52.490;13.434;2023-03-01T12:50:10;6.83;;;1.50;;
20478;SDS011;10398;52.490;13.434;2023-03-01T12:52:33;4.37;;;1.77;;
20478;SDS011;10398;52.490;13.434;2023-03-01T12:55:06;3.57;;;1.40;;
20478;SDS011;10398;52.490;13.434;2023-03-01T12:57:50;5.90;;;2.20;;
20478;SDS011;10398;52.490;13.434;2023-03-01T13:00:32;5.53;;;1.63;;
20478;SDS011;10398;52.490;13.434;2023-03-01T13:06:14;4.83;;;1.57;;
20478;SDS011;10398;52.490;13.434;2023-03-01T13:11:54;4.97;;;1.90;;
20478;SDS011;10398;52.490;13.434;2023-03-01T13:16:52;6.40;;;2.07;;
20478;SDS011;10398;52.490;13.434;2023-03-01T13:19:25;8.53;;;1.47;;
20478;SDS011;10398;52.490;13.434;2023-03-01T13:22:00;2.90;;;1.67;;
20478;SDS011;10398;52.490;13.434;2023-03-01T13:27:45;4.90;;;1.77;;
20478;SDS011;10398;52.490;13.434;2023-03-01T13:36:08;5.10;;;1.63;;
20478;SDS011;10398;52.490;13.434;2023-03-01T13:49:43;3.57;;;1.47;;
20478;SDS011;10398;52.490;13.434;2023-03-01T13:52:22;6.43;;;1.60;;
20478;SDS011;10398;52.490;13.434;2023-03-01T13:55:00;3.63;;;1.73;;
20478;SDS011;10398;52.490;13.434;2023-03-01T13:57:37;4.97;;;1.87;;
20478;SDS011;10398;52.490;13.434;2023-03-01T14:00:07;4.33;;;1.80;;
20478;SDS011;10398;52.490;13.434;2023-03-01T14:02:59;5.07;;;1.93;;
20478;SDS011;10398;52.490;13.434;2023-03-01T14:05:29;8.30;;;2.40;;
20478;SDS011;10398;52.490;13.434;2023-03-01T14:07:56;4.97;;;1.77;;
20478;SDS011;10398;52.490;13.434;2023-03-01T14:10:22;4.83;;;1.90;;
20478;SDS011;10398;52.490;13.434;2023-03-01T14:15:42;4.97;;;1.70;;
20478;SDS011;10398;52.490;13.434;2023-03-01T14:18:35;5.67;;;1.70;;
20478;SDS011;10398;52.490;13.434;2023-03-01T14:21:17;8.33;;;2.00;;
20478;SDS011;10398;52.490;13.434;2023-03-01T14:23:42;3.63;;;1.37;;
20478;SDS011;10398;52.490;13.434;2023-03-01T14:26:09;4.27;;;1.60;;
20478;SDS011;10398;52.490;13.434;2023-03-01T14:28:37;6.10;;;1.80;;
20478;SDS011;10398;52.490;13.434;2023-03-01T14:31:25;6.03;;;1.70;;
20478;SDS011;10398;52.490;13.434;2023-03-01T14:33:55;9.83;;;1.60;;
20478;SDS011;10398;52.490;13.434;2023-03-01T14:36:25;8.87;;;2.27;;
20478;SDS011;10398;52.490;13.434;2023-03-01T14:38:52;6.30;;;1.90;;
20478;SDS011;10398;52.490;13.434;2023-03-01T14:41:23;5.83;;;1.83;;
20478;SDS011;10398;52.490;13.434;2023-03-01T14:43:55;7.70;;;1.73;;
20478;SDS011;10398;52.490;13.434;2023-03-01T14:46:33;3.27;;;1.53;;
20478;SDS011;10398;52.490;13.434;2023-03-01T14:49:03;6.67;;;1.90;;
20478;SDS011;10398;52.490;13.434;2023-03-01T14:51:39;5.70;;;1.90;;
20478;SDS011;10398;52.490;13.434;2023-03-01T14:57:20;6.43;;;2.47;;
20478;SDS011;10398;52.490;13.434;2023-03-01T14:59:48;7.67;;;2.07;;
20478;SDS011;10398;52.490;13.434;2023-03-01T15:02:20;5.70;;;1.80;;
20478;SDS011;10398;52.490;13.434;2023-03-01T15:04:51;8.87;;;1.80;;
20478;SDS011;10398;52.490;13.434;2023-03-01T15:07:26;2.80;;;1.47;;
20478;SDS011;10398;52.490;13.434;2023-03-01T15:09:56;3.10;;;1.40;;
20478;SDS011;10398;52.490;13.434;2023-03-01T15:14:52;7.10;;;2.00;;
20478;SDS011;10398;52.490;13.434;2023-03-01T15:17:21;4.97;;;1.80;;
20478;SDS011;10398;52.490;13.434;2023-03-01T15:19:56;2.27;;;1.30;;
20478;SDS011;10398;52.490;13.434;2023-03-01T15:22:22;4.73;;;1.70;;
20478;SDS011;10398;52.490;13.434;2023-03-01T15:24:52;7.67;;;1.87;;
20478;SDS011;10398;52.490;13.434;2023-03-01T15:27:20;3.30;;;1.43;;
20478;SDS011;10398;52.490;13.434;2023-03-01T15:29:49;15.60;;;2.27;;
20478;SDS011;10398;52.490;13.434;2023-03-01T15:32:30;4.97;;;2.07;;
20478;SDS011;10398;52.490;13.434;2023-03-01T15:35:31;3.80;;;2.07;;
20478;SDS011;10398;52.490;13.434;2023-03-01T15:40:51;8.20;;;2.55;;
20478;SDS011;10398;52.490;13.434;2023-03-01T15:46:28;6.40;;;2.10;;
20478;SDS011;10398;52.490;13.434;2023-03-01T15:48:58;4.13;;;1.57;;
20478;SDS011;10398;52.490;13.434;2023-03-01T15:53:58;4.30;;;1.73;;
20478;SDS011;10398;52.490;13.434;2023-03-01T15:56:26;10.07;;;1.77;;
20478;SDS011;10398;52.490;13.434;2023-03-01T15:58:52;5.32;;;1.98;;
20478;SDS011;10398;52.490;13.434;2023-03-01T16:01:17;7.23;;;2.80;;
20478;SDS011;10398;52.490;13.434;2023-03-01T16:03:44;5.97;;;2.40;;
20478;SDS011;10398;52.490;13.434;2023-03-01T16:06:10;7.43;;;2.77;;
20478;SDS011;10398;52.490;13.434;2023-03-01T16:08:39;9.00;;;3.17;;
20478;SDS011;10398;52.490;13.434;2023-03-01T16:11:24;10.20;;;4.03;;
20478;SDS011;10398;52.490;13.434;2023-03-01T16:13:50;8.67;;;2.40;;
20478;SDS011;10398;52.490;13.434;2023-03-01T16:16:16;4.87;;;1.77;;
20478;SDS011;10398;52.490;13.434;2023-03-01T16:18:43;13.07;;;2.27;;
20478;SDS011;10398;52.490;13.434;2023-03-01T16:21:13;4.40;;;2.13;;
20478;SDS011;10398;52.490;13.434;2023-03-01T16:23:51;6.43;;;2.07;;
20478;SDS011;10398;52.490;13.434;2023-03-01T16:26:17;4.50;;;2.30;;
20478;SDS011;10398;52.490;13.434;2023-03-01T16:28:44;7.13;;;2.20;;
20478;SDS011;10398;52.490;13.434;2023-03-01T16:31:10;4.93;;;2.07;;
20478;SDS011;10398;52.490;13.434;2023-03-01T16:33:37;8.73;;;2.77;;
20478;SDS011;10398;52.490;13.434;2023-03-01T16:36:09;4.57;;;1.80;;
20478;SDS011;10398;52.490;13.434;2023-03-01T16:38:37;7.03;;;2.70;;
20478;SDS011;10398;52.490;13.434;2023-03-01T16:41:03;6.80;;;2.20;;
20478;SDS011;10398;52.490;13.434;2023-03-01T16:43:30;8.27;;;2.20;;
20478;SDS011;10398;52.490;13.434;2023-03-01T16:45:56;8.70;;;2.70;;
20478;SDS011;10398;52.490;13.434;2023-03-01T16:48:24;7.93;;;2.83;;
20478;SDS011;10398;52.490;13.434;2023-03-01T16:50:56;5.63;;;2.07;;
20478;SDS011;10398;52.490;13.434;2023-03-01T16:53:23;12.40;;;2.60;;
20478;SDS011;10398;52.490;13.434;2023-03-01T16:55:52;5.27;;;2.43;;
20478;SDS011;10398;52.490;13.434;2023-03-01T16:58:19;8.93;;;4.13;;
20478;SDS011;10398;52.490;13.434;2023-03-01T17:00:45;9.63;;;3.67;;